createdAt,value
2019-05-25T00:02:02.096Z,5.63
2019-05-25T00:04:32.906Z,5.90
2019-05-25T00:07:03.769Z,6.23
2019-05-25T00:09:34.616Z,5.40
2019-05-25T00:12:05.417Z,5.83
2019-05-25T00:14:36.152Z,6.40
2019-05-25T00:17:06.945Z,6.60
2019-05-25T00:19:37.702Z,5.80
2019-05-25T00:22:08.635Z,6.10
2019-05-25T00:24:39.356Z,6.40
2019-05-25T00:27:11.247Z,5.57
2019-05-25T00:29:41.973Z,5.53
2019-05-25T00:32:13.050Z,5.90
2019-05-25T00:34:44.855Z,5.10
2019-05-25T00:37:15.720Z,5.13
2019-05-25T00:39:46.613Z,4.50
2019-05-25T00:42:17.408Z,4.20
2019-05-25T00:44:48.126Z,3.90
2019-05-25T00:47:18.937Z,3.40
2019-05-25T00:49:49.769Z,3.50
2019-05-25T00:52:20.666Z,3.73
2019-05-25T00:54:51.487Z,3.30
2019-05-25T00:57:22.347Z,3.40
2019-05-25T00:59:53.172Z,3.20
2019-05-25T01:02:23.981Z,3.37
2019-05-25T01:04:54.719Z,3.20
2019-05-25T01:07:25.488Z,3.47
2019-05-25T01:09:56.259Z,3.60
2019-05-25T01:12:27.048Z,3.40
2019-05-25T01:14:57.788Z,3.23
2019-05-25T01:17:28.575Z,3.50
2019-05-25T01:19:59.492Z,3.70
2019-05-25T01:22:30.378Z,3.87
2019-05-25T01:25:01.240Z,3.70
2019-05-25T01:27:32.125Z,3.87
2019-05-25T01:30:02.946Z,3.90
2019-05-25T01:32:33.967Z,3.50
2019-05-25T01:35:04.830Z,3.60
2019-05-25T01:37:35.621Z,3.70
2019-05-25T01:40:07.836Z,4.00
2019-05-25T01:42:38.792Z,3.93
2019-05-25T01:45:11.420Z,3.93
2019-05-25T01:47:43.402Z,4.07
2019-05-25T01:50:14.530Z,4.07
2019-05-25T01:52:45.317Z,4.30
2019-05-25T01:55:16.265Z,4.80
2019-05-25T01:57:47.050Z,4.80
2019-05-25T02:00:18.405Z,4.77
2019-05-25T02:02:49.311Z,4.93
2019-05-25T02:05:20.218Z,4.77
2019-05-25T02:07:51.103Z,5.50
2019-05-25T02:10:21.937Z,5.43
2019-05-25T02:12:52.759Z,5.43
2019-05-25T02:15:23.691Z,5.30
2019-05-25T02:17:54.495Z,5.33
2019-05-25T02:20:25.317Z,5.60
2019-05-25T02:22:56.136Z,5.77
2019-05-25T02:25:26.896Z,6.10
2019-05-25T02:27:57.680Z,6.27
2019-05-25T02:30:28.658Z,6.00
2019-05-25T02:32:59.528Z,6.37
2019-05-25T02:35:30.377Z,7.13
2019-05-25T02:38:01.256Z,6.83
2019-05-25T02:40:32.129Z,7.37
2019-05-25T02:43:02.937Z,7.70
2019-05-25T02:45:33.769Z,7.70
2019-05-25T02:48:04.668Z,7.93
2019-05-25T02:50:35.406Z,8.37
2019-05-25T02:53:06.286Z,8.30
2019-05-25T02:55:37.040Z,8.23
2019-05-25T02:58:07.839Z,8.57
2019-05-25T03:00:38.779Z,8.97
2019-05-25T03:03:09.600Z,8.77
2019-05-25T03:05:40.473Z,9.03
2019-05-25T03:08:11.275Z,8.50
2019-05-25T03:10:42.197Z,9.00
2019-05-25T03:13:13.074Z,9.53
2019-05-25T03:15:43.816Z,9.70
2019-05-25T03:18:14.633Z,9.60
2019-05-25T03:20:45.360Z,10.40
2019-05-25T03:23:16.169Z,10.10
2019-05-25T03:25:49.964Z,9.87
2019-05-25T03:28:19.497Z,9.97
2019-05-25T03:30:50.366Z,9.43
2019-05-25T03:33:21.179Z,9.20
2019-05-25T03:35:51.977Z,8.40
2019-05-25T03:38:23.808Z,8.13
2019-05-25T03:40:54.578Z,7.67
2019-05-25T03:43:25.376Z,7.80
2019-05-25T03:45:56.136Z,7.07
2019-05-25T03:48:26.948Z,6.10
2019-05-25T03:50:58.307Z,4.70
2019-05-25T03:53:29.178Z,4.27
2019-05-25T03:56:05.833Z,3.80
2019-05-25T03:58:32.408Z,3.63
2019-05-25T04:01:03.160Z,4.23
2019-05-25T04:03:33.977Z,3.50
2019-05-25T04:06:04.766Z,3.80
2019-05-25T04:08:35.698Z,4.50
2019-05-25T04:11:06.525Z,3.83
2019-05-25T04:13:37.408Z,4.20
2019-05-25T04:16:08.387Z,3.57
2019-05-25T04:18:40.408Z,3.30
2019-05-25T04:21:11.298Z,3.80
2019-05-25T04:23:42.289Z,3.70
2019-05-25T04:26:22.083Z,3.40
2019-05-25T04:28:45.477Z,3.67
2019-05-25T04:31:16.398Z,2.90
2019-05-25T04:33:47.249Z,3.27
2019-05-25T04:36:18.086Z,3.27
2019-05-25T04:38:50.003Z,3.50
2019-05-25T04:41:20.800Z,3.30
2019-05-25T04:44:06.160Z,2.63
2019-05-25T04:46:42.393Z,2.70
2019-05-25T04:49:14.138Z,2.57
2019-05-25T04:51:45.967Z,2.20
2019-05-25T04:54:17.859Z,2.20
2019-05-25T04:56:49.403Z,2.57
2019-05-25T04:59:21.009Z,2.53
2019-05-25T05:01:52.040Z,2.23
2019-05-25T05:04:23.596Z,2.33
2019-05-25T05:06:55.132Z,2.30
2019-05-25T05:09:26.782Z,2.20
2019-05-25T05:11:57.839Z,2.20
2019-05-25T05:14:29.343Z,2.30
2019-05-25T05:17:00.465Z,2.73
2019-05-25T05:19:32.058Z,2.13
2019-05-25T05:22:05.971Z,1.70
2019-05-25T05:24:38.129Z,1.80
2019-05-25T05:27:09.810Z,1.87
2019-05-25T05:29:40.902Z,1.80
2019-05-25T05:32:24.902Z,1.90
2019-05-25T05:34:44.986Z,1.80
2019-05-25T05:37:16.705Z,1.70
2019-05-25T05:39:48.410Z,1.90
2019-05-25T05:42:21.480Z,1.90
2019-05-25T05:44:55.100Z,1.80
2019-05-25T05:47:27.113Z,1.40
2019-05-25T05:50:00.811Z,2.13
2019-05-25T05:52:35.282Z,1.60
2019-05-25T05:55:07.708Z,1.70
2019-05-25T05:57:39.429Z,1.60
2019-05-25T06:00:12.289Z,1.40
2019-05-25T06:02:43.702Z,1.80
2019-05-25T06:05:15.913Z,1.33
2019-05-25T06:07:48.897Z,1.50
2019-05-25T06:10:23.204Z,1.70
2019-05-25T06:12:55.253Z,1.57
2019-05-25T06:15:28.073Z,1.60
2019-05-25T06:17:59.028Z,1.47
2019-05-25T06:20:29.982Z,2.00
2019-05-25T06:23:00.785Z,1.60
2019-05-25T06:25:31.586Z,1.60
2019-05-25T06:28:02.368Z,1.50
2019-05-25T06:30:33.182Z,1.60
2019-05-25T06:33:04.119Z,1.90
2019-05-25T06:35:34.943Z,2.43
2019-05-25T06:38:05.962Z,1.97
2019-05-25T06:40:36.867Z,1.93
2019-05-25T06:43:07.964Z,2.90
2019-05-25T06:45:38.802Z,2.23
2019-05-25T06:48:09.830Z,2.30
2019-05-25T06:50:40.603Z,2.90
2019-05-25T06:53:11.390Z,1.80
2019-05-25T06:55:42.818Z,1.50
2019-05-25T06:58:13.814Z,1.23
2019-05-25T07:00:45.264Z,1.47
2019-05-25T07:03:16.179Z,1.63
2019-05-25T07:05:47.008Z,1.47
2019-05-25T07:08:18.796Z,1.60
2019-05-25T07:10:51.216Z,1.70
2019-05-25T07:13:22.304Z,1.60
2019-05-25T07:15:53.097Z,1.60
2019-05-25T07:18:23.945Z,1.90
2019-05-25T07:20:54.844Z,2.07
2019-05-25T07:23:26.025Z,1.97
2019-05-25T07:25:59.338Z,2.10
2019-05-25T07:28:30.303Z,2.00
2019-05-25T07:31:01.097Z,2.20
2019-05-25T07:33:31.860Z,1.90
2019-05-25T07:36:07.367Z,2.33
2019-05-25T07:38:35.026Z,2.40
2019-05-25T07:41:05.946Z,2.10
2019-05-25T07:43:36.896Z,2.20
2019-05-25T07:46:07.890Z,2.20
2019-05-25T07:48:38.758Z,1.80
2019-05-25T07:51:09.676Z,1.73
2019-05-25T07:53:40.443Z,2.33
2019-05-25T07:56:11.410Z,1.73
2019-05-25T07:58:42.183Z,2.10
2019-05-25T08:01:13.080Z,1.93
2019-05-25T08:03:43.960Z,2.23
2019-05-25T08:06:14.983Z,1.80
2019-05-25T08:08:45.818Z,1.83
2019-05-25T08:11:16.685Z,1.80
2019-05-25T08:13:48.644Z,2.33
2019-05-25T08:16:19.569Z,2.33
2019-05-25T08:18:50.348Z,2.23
2019-05-25T08:21:21.440Z,2.27
2019-05-25T08:23:52.406Z,2.30
2019-05-25T08:26:23.516Z,2.20
2019-05-25T08:28:54.478Z,2.13
2019-05-25T08:31:25.409Z,2.33
2019-05-25T08:33:56.279Z,2.53
2019-05-25T08:36:29.771Z,2.87
2019-05-25T08:38:59.609Z,3.10
2019-05-25T08:41:30.462Z,3.00
2019-05-25T08:44:04.422Z,2.33
2019-05-25T08:46:34.883Z,2.10
2019-05-25T08:49:08.113Z,2.00
2019-05-25T08:51:40.956Z,1.57
2019-05-25T08:54:11.716Z,1.80
2019-05-25T08:56:43.702Z,2.10
2019-05-25T08:59:16.101Z,1.83
2019-05-25T09:01:46.988Z,1.77
2019-05-25T09:04:17.846Z,2.07
2019-05-25T09:06:48.715Z,1.70
2019-05-25T09:09:19.510Z,2.10
2019-05-25T09:11:50.315Z,2.10
2019-05-25T09:14:21.088Z,2.20
2019-05-25T09:16:51.995Z,2.30
2019-05-25T09:19:23.731Z,2.30
2019-05-25T09:22:02.394Z,2.00
2019-05-25T09:24:27.315Z,1.73
2019-05-25T09:26:59.224Z,2.20
2019-05-25T09:29:30.107Z,2.70
2019-05-25T09:32:00.945Z,1.97
2019-05-25T09:34:31.702Z,2.13
2019-05-25T09:37:02.504Z,2.10
2019-05-25T09:39:33.305Z,2.30
2019-05-25T09:42:04.134Z,2.50
2019-05-25T09:44:34.913Z,2.30
2019-05-25T09:47:05.967Z,2.30
2019-05-25T09:49:36.713Z,2.00
2019-05-25T09:52:07.775Z,2.10
2019-05-25T09:54:38.513Z,3.10
2019-05-25T09:57:09.589Z,2.97
2019-05-25T09:59:40.389Z,2.03
2019-05-25T10:02:11.414Z,2.10
2019-05-25T10:04:42.276Z,2.20
2019-05-25T10:07:13.152Z,2.50
2019-05-25T10:09:44.039Z,2.10
2019-05-25T10:12:16.307Z,2.10
2019-05-25T10:14:50.071Z,2.30
2019-05-25T10:17:20.987Z,2.10
2019-05-25T10:19:51.714Z,2.20
2019-05-25T10:22:22.569Z,2.00
2019-05-25T10:24:53.343Z,2.00
2019-05-25T10:27:25.022Z,2.10
2019-05-25T10:29:56.399Z,2.13
2019-05-25T10:32:30.121Z,1.90
2019-05-25T10:35:01.730Z,1.93
2019-05-25T10:37:32.531Z,2.20
2019-05-25T10:40:03.446Z,1.80
2019-05-25T10:42:35.483Z,2.10
2019-05-25T10:45:07.770Z,2.27
2019-05-25T10:47:38.692Z,2.10
2019-05-25T10:50:10.182Z,2.13
2019-05-25T10:52:41.034Z,3.10
2019-05-25T10:55:12.289Z,2.53
2019-05-25T10:57:43.122Z,1.80
2019-05-25T11:00:14.811Z,1.70
2019-05-25T11:02:45.747Z,1.90
2019-05-25T11:05:17.085Z,2.03
2019-05-25T11:07:47.926Z,1.87
2019-05-25T11:10:18.869Z,2.07
2019-05-25T11:12:50.705Z,2.07
2019-05-25T11:15:22.607Z,1.77
2019-05-25T11:17:53.409Z,2.23
2019-05-25T11:20:25.130Z,2.10
2019-05-25T11:22:55.942Z,2.00
2019-05-25T11:25:26.885Z,2.07
2019-05-25T11:27:57.694Z,2.50
2019-05-25T11:30:28.592Z,2.00
2019-05-25T11:32:59.575Z,2.00
2019-05-25T11:35:30.387Z,1.70
2019-05-25T11:38:04.402Z,1.83
2019-05-25T11:40:36.410Z,1.70
2019-05-25T11:43:07.191Z,2.00
2019-05-25T11:45:39.601Z,1.80
2019-05-25T11:48:10.813Z,1.70
2019-05-25T11:53:26.625Z,2.90
2019-05-25T11:55:58.919Z,1.87
2019-05-25T11:58:46.593Z,2.03
2019-05-25T12:01:05.516Z,1.50
2019-05-25T12:03:37.040Z,1.70
2019-05-25T12:06:07.842Z,1.40
2019-05-25T12:08:39.393Z,1.80
2019-05-25T12:11:10.126Z,1.60
2019-05-25T12:13:40.937Z,1.30
2019-05-25T12:16:14.775Z,1.77
2019-05-25T12:18:46.349Z,1.47
2019-05-25T12:21:17.277Z,1.80
2019-05-25T12:23:48.984Z,1.60
2019-05-25T12:26:20.918Z,1.90
2019-05-25T12:28:53.090Z,1.63
2019-05-25T12:31:24.606Z,1.60
2019-05-25T12:33:56.404Z,2.10
2019-05-25T12:36:28.468Z,1.83
2019-05-25T12:39:00.352Z,1.50
2019-05-25T12:41:31.937Z,1.80
2019-05-25T12:44:03.729Z,2.30
2019-05-25T12:46:34.728Z,1.77
2019-05-25T12:49:05.744Z,1.80
2019-05-25T12:51:36.512Z,1.90
2019-05-25T12:54:07.316Z,1.70
2019-05-25T12:56:38.091Z,1.60
2019-05-25T12:59:08.942Z,1.90
2019-05-25T13:01:39.682Z,1.73
2019-05-25T13:04:10.592Z,2.00
2019-05-25T13:06:42.163Z,1.77
2019-05-25T13:09:13.071Z,1.80
2019-05-25T13:11:44.520Z,1.70
2019-05-25T13:14:28.106Z,1.70
2019-05-25T13:17:05.470Z,1.50
2019-05-25T13:19:36.382Z,1.67
2019-05-25T13:22:07.195Z,2.50
2019-05-25T13:24:42.697Z,2.93
2019-05-25T13:27:13.472Z,2.07
2019-05-25T13:29:45.667Z,2.00
2019-05-25T13:32:17.469Z,2.00
2019-05-25T13:34:48.309Z,2.03
2019-05-25T13:37:44.759Z,2.00
2019-05-25T13:41:17.721Z,1.80
2019-05-25T13:44:09.219Z,1.77
2019-05-25T13:50:42.910Z,1.93
2019-05-25T13:53:17.170Z,1.80
2019-05-25T13:55:48.577Z,1.80
2019-05-25T13:58:20.305Z,1.80
2019-05-25T14:00:51.788Z,2.27
2019-05-25T14:03:33.721Z,1.80
2019-05-25T14:06:06.428Z,2.00
2019-05-25T14:08:38.418Z,1.93
2019-05-25T14:11:13.359Z,2.03
2019-05-25T14:13:46.874Z,2.00
2019-05-25T14:16:18.695Z,1.90
2019-05-25T14:18:51.029Z,1.90
2019-05-25T14:21:39.731Z,1.90
2019-05-25T14:24:19.647Z,2.10
2019-05-25T14:27:05.705Z,2.00
2019-05-25T14:29:53.440Z,1.73
2019-05-25T14:32:37.974Z,1.60
2019-05-25T14:35:09.537Z,2.17
2019-05-25T14:37:41.266Z,1.73
2019-05-25T14:40:16.908Z,1.73
2019-05-25T14:42:48.859Z,2.10
2019-05-25T14:45:21.812Z,1.70
2019-05-25T14:47:53.713Z,1.60
2019-05-25T14:50:25.287Z,1.63
2019-05-25T14:52:57.104Z,1.87
2019-05-25T14:55:29.270Z,2.37
2019-05-25T14:58:00.732Z,2.53
2019-05-25T15:00:32.242Z,2.20
2019-05-25T15:03:03.646Z,2.27
2019-05-25T15:05:36.157Z,1.90
2019-05-25T15:08:08.541Z,1.80
2019-05-25T15:10:39.985Z,2.10
2019-05-25T15:13:11.344Z,2.30
2019-05-25T15:15:42.662Z,1.90
2019-05-25T15:18:13.916Z,2.00
2019-05-25T15:20:45.593Z,3.70
2019-05-25T15:23:16.656Z,1.77
2019-05-25T15:25:48.129Z,2.23
2019-05-25T15:28:19.269Z,2.60
2019-05-25T15:30:50.871Z,2.20
2019-05-25T15:33:22.095Z,2.30
2019-05-25T15:35:53.534Z,2.20
2019-05-25T15:38:25.174Z,2.50
2019-05-25T15:40:56.631Z,2.83
2019-05-25T15:43:37.907Z,2.33
2019-05-25T15:46:10.537Z,3.83
2019-05-25T15:48:44.186Z,7.80
2019-05-25T15:51:15.468Z,2.10
2019-05-25T15:53:47.657Z,2.33
2019-05-25T15:56:18.619Z,1.87
2019-05-25T15:58:58.221Z,1.87
2019-05-25T16:01:31.931Z,2.23
2019-05-25T16:04:04.024Z,5.23
2019-05-25T16:06:35.959Z,2.23
2019-05-25T16:09:08.282Z,2.67
2019-05-25T16:11:39.463Z,2.00
2019-05-25T16:14:15.041Z,2.23
2019-05-25T16:20:21.379Z,2.90
2019-05-25T16:22:55.680Z,2.70
2019-05-25T16:25:26.501Z,2.33
2019-05-25T16:27:57.516Z,2.00
2019-05-25T16:33:13.143Z,2.00
2019-05-25T16:36:29.992Z,2.10
2019-05-25T16:37:07.604Z,1.70
2019-05-25T16:39:08.661Z,1.60
2019-05-25T16:41:39.644Z,1.90
2019-05-25T16:44:14.099Z,1.70
2019-05-25T16:46:45.748Z,1.67
2019-05-25T16:49:16.927Z,1.60
2019-05-25T16:51:48.608Z,1.67
2019-05-25T16:54:19.501Z,1.80
2019-05-25T16:56:50.523Z,2.07
2019-05-25T16:59:21.380Z,1.90
2019-05-25T17:02:00.056Z,2.30
2019-05-25T17:04:34.007Z,2.10
2019-05-25T17:07:05.020Z,1.97
2019-05-25T17:09:35.957Z,2.77
2019-05-25T17:12:07.105Z,2.30
2019-05-25T17:14:38.003Z,2.83
2019-05-25T17:17:08.973Z,2.83
2019-05-25T17:19:39.831Z,3.43
2019-05-25T17:22:10.771Z,2.73
2019-05-25T17:24:41.730Z,2.50
2019-05-25T17:27:12.791Z,2.60
2019-05-25T17:29:43.518Z,2.13
2019-05-25T17:32:14.310Z,2.40
2019-05-25T17:34:46.240Z,2.90
2019-05-25T17:37:16.956Z,2.97
2019-05-25T17:39:48.403Z,3.30
2019-05-25T17:42:19.105Z,2.97
2019-05-25T17:44:49.940Z,2.87
2019-05-25T17:47:20.752Z,3.07
2019-05-25T17:49:51.558Z,2.93
2019-05-25T17:52:23.052Z,2.43
2019-05-25T17:54:54.266Z,2.10
2019-05-25T17:57:24.936Z,2.70
2019-05-25T17:59:59.266Z,2.77
2019-05-25T18:02:28.081Z,2.20
2019-05-25T18:04:58.844Z,2.10
2019-05-25T18:07:32.569Z,2.27
2019-05-25T18:10:03.403Z,17.53
2019-05-25T18:12:46.540Z,33.60
2019-05-25T18:15:22.347Z,3.93
2019-05-25T18:18:23.052Z,3.40
2019-05-25T18:20:53.900Z,6.43
2019-05-25T18:23:45.175Z,2.80
2019-05-25T18:26:16.690Z,3.10
2019-05-25T18:28:47.497Z,4.10
2019-05-25T18:31:18.300Z,3.20
2019-05-25T18:34:21.742Z,3.10
2019-05-25T18:36:51.020Z,3.10
2019-05-25T18:39:32.482Z,3.37
2019-05-25T18:42:20.810Z,4.00
2019-05-25T18:45:10.972Z,4.40
2019-05-25T18:47:41.910Z,4.73
2019-05-25T18:50:12.936Z,4.33
2019-05-25T18:52:43.782Z,4.00
2019-05-25T18:55:14.662Z,4.27
2019-05-25T18:57:45.431Z,4.30
2019-05-25T19:00:17.770Z,4.67
2019-05-25T19:02:48.897Z,5.27
2019-05-25T19:05:19.799Z,5.63
2019-05-25T19:07:50.665Z,6.30
2019-05-25T19:10:21.647Z,6.70
2019-05-25T19:12:52.615Z,6.93
2019-05-25T19:15:23.670Z,6.50
2019-05-25T19:17:54.481Z,6.50
2019-05-25T19:20:26.076Z,6.80
2019-05-25T19:22:58.863Z,6.57
2019-05-25T19:25:30.387Z,7.07
2019-05-25T19:28:01.934Z,7.07
2019-05-25T19:30:33.328Z,5.70
2019-05-25T19:33:05.080Z,6.20
2019-05-25T19:35:36.764Z,6.43
2019-05-25T19:38:08.705Z,7.03
2019-05-25T19:40:40.780Z,6.87
2019-05-25T19:43:15.446Z,7.23
2019-05-25T19:45:47.533Z,7.10
2019-05-25T19:48:22.129Z,6.47
2019-05-25T19:50:56.177Z,6.43
2019-05-25T19:53:27.923Z,5.90
2019-05-25T19:55:59.682Z,5.70
2019-05-25T19:58:31.454Z,5.23
2019-05-25T20:01:03.226Z,5.50
2019-05-25T20:03:34.774Z,6.53
2019-05-25T20:06:06.739Z,6.73
2019-05-25T20:08:38.473Z,6.80
2019-05-25T20:11:10.379Z,7.00
2019-05-25T20:13:42.273Z,7.87
2019-05-25T20:16:13.931Z,7.33
2019-05-25T20:18:44.844Z,8.23
2019-05-25T20:21:15.612Z,8.77
2019-05-25T20:23:46.448Z,9.17
2019-05-25T20:26:17.220Z,7.97
2019-05-25T20:28:50.663Z,9.40
2019-05-25T20:31:20.437Z,7.73
2019-05-25T20:33:51.263Z,5.67
2019-05-25T20:36:22.222Z,5.43
2019-05-25T20:38:53.023Z,4.93
2019-05-25T20:41:23.884Z,4.90
2019-05-25T20:43:54.705Z,5.30
2019-05-25T20:46:25.664Z,5.47
2019-05-25T20:48:56.612Z,5.60
2019-05-25T20:51:27.543Z,6.00
2019-05-25T20:53:58.454Z,6.30
2019-05-25T20:56:29.288Z,6.50
2019-05-25T20:59:01.213Z,6.43
2019-05-25T21:01:32.009Z,6.73
2019-05-25T21:04:02.859Z,8.17
2019-05-25T21:06:34.940Z,6.60
2019-05-25T21:09:07.861Z,6.53
2019-05-25T21:11:38.709Z,7.10
2019-05-25T21:14:09.669Z,7.43
2019-05-25T21:16:40.617Z,8.07
2019-05-25T21:19:11.543Z,8.30
2019-05-25T21:21:43.300Z,7.27
2019-05-25T21:24:14.131Z,7.13
2019-05-25T21:26:44.978Z,6.70
2019-05-25T21:29:15.807Z,6.53
2019-05-25T21:31:50.028Z,6.87
2019-05-25T21:34:20.912Z,6.70
2019-05-25T21:36:51.683Z,6.50
2019-05-25T21:39:22.505Z,5.93
2019-05-25T21:41:53.259Z,6.27
2019-05-25T21:44:24.227Z,6.50
2019-05-25T21:46:55.048Z,5.90
2019-05-25T21:49:27.144Z,5.43
2019-05-25T21:51:57.996Z,5.90
2019-05-25T21:54:28.926Z,6.17
2019-05-25T21:56:59.844Z,5.80
2019-05-25T21:59:32.788Z,6.43
2019-05-25T22:02:03.193Z,6.33
2019-05-25T22:04:34.065Z,7.00
2019-05-25T22:07:05.061Z,6.87
2019-05-25T22:09:35.895Z,7.07
2019-05-25T22:12:06.794Z,7.43
2019-05-25T22:14:37.601Z,6.47
2019-05-25T22:17:08.480Z,5.97
2019-05-25T22:19:39.359Z,6.40
2019-05-25T22:22:10.232Z,6.30
2019-05-25T22:24:41.037Z,5.93
2019-05-25T22:27:11.796Z,5.67
2019-05-25T22:29:42.915Z,6.33
2019-05-25T22:32:13.707Z,5.93
2019-05-25T22:34:44.512Z,6.07
2019-05-25T22:37:15.317Z,5.67
2019-05-25T22:39:46.124Z,6.50
2019-05-25T22:42:16.909Z,5.97
2019-05-25T22:44:47.733Z,5.80
2019-05-25T22:47:18.496Z,6.27
2019-05-25T22:49:49.397Z,6.60
2019-05-25T22:52:20.172Z,6.93
2019-05-25T22:54:51.090Z,5.97
2019-05-25T22:57:21.977Z,6.30
2019-05-25T22:59:52.860Z,6.57
2019-05-25T23:02:23.686Z,5.80
2019-05-25T23:04:54.510Z,6.37
2019-05-25T23:07:25.262Z,6.80
2019-05-25T23:09:56.063Z,6.50
2019-05-25T23:12:26.808Z,6.33
2019-05-25T23:14:57.659Z,7.20
2019-05-25T23:17:28.429Z,6.60
2019-05-25T23:19:59.274Z,6.10
2019-05-25T23:22:30.141Z,6.57
2019-05-25T23:25:01.416Z,6.37
2019-05-25T23:27:32.233Z,7.10
2019-05-25T23:30:03.166Z,6.10
2019-05-25T23:32:34.023Z,6.33
2019-05-25T23:35:05.107Z,6.67
2019-05-25T23:37:35.995Z,6.30
2019-05-25T23:40:07.659Z,6.17
2019-05-25T23:42:38.419Z,5.90
2019-05-25T23:45:09.773Z,5.73
2019-05-25T23:47:40.617Z,5.70
2019-05-25T23:50:11.734Z,5.90
2019-05-25T23:52:42.535Z,5.73
2019-05-25T23:55:14.114Z,6.00
2019-05-25T23:57:44.822Z,6.07
